sensor_id;sensor_type;location;lat;lon;timestamp;P1;durP1;ratioP1;P2;durP2;ratioP2
14984;SDS011;7588;62.368;25.902;2024-02-23T00:01:49;1.33;;;0.68;;
14984;SDS011;7588;62.368;25.902;2024-02-23T00:04:16;1.48;;;0.65;;
14984;SDS011;7588;62.368;25.902;2024-02-23T00:06:44;1.52;;;0.80;;
14984;SDS011;7588;62.368;25.902;2024-02-23T00:09:09;1.42;;;0.32;;
14984;SDS011;7588;62.368;25.902;2024-02-23T00:11:35;1.15;;;0.43;;
14984;SDS011;7588;62.368;25.902;2024-02-23T00:14:05;1.77;;;0.52;;
14984;SDS011;7588;62.368;25.902;2024-02-23T00:16:30;1.25;;;0.40;;
14984;SDS011;7588;62.368;25.902;2024-02-23T00:18:56;1.00;;;0.50;;
14984;SDS011;7588;62.368;25.902;2024-02-23T00:21:21;1.25;;;0.45;;
14984;SDS011;7588;62.368;25.902;2024-02-23T00:23:47;1.20;;;0.50;;
14984;SDS011;7588;62.368;25.902;2024-02-23T00:26:12;1.10;;;0.32;;
14984;SDS011;7588;62.368;25.902;2024-02-23T00:28:38;1.00;;;0.38;;
14984;SDS011;7588;62.368;25.902;2024-02-23T00:31:03;1.30;;;0.55;;
14984;SDS011;7588;62.368;25.902;2024-02-23T00:33:29;1.00;;;0.55;;
14984;SDS011;7588;62.368;25.902;2024-02-23T00:35:54;0.90;;;0.40;;
14984;SDS011;7588;62.368;25.902;2024-02-23T00:38:20;1.10;;;0.43;;
14984;SDS011;7588;62.368;25.902;2024-02-23T00:40:46;0.90;;;0.40;;
14984;SDS011;7588;62.368;25.902;2024-02-23T00:43:12;1.02;;;0.45;;
14984;SDS011;7588;62.368;25.902;2024-02-23T00:45:37;1.10;;;0.45;;
14984;SDS011;7588;62.368;25.902;2024-02-23T00:48:03;1.10;;;0.47;;
14984;SDS011;7588;62.368;25.902;2024-02-23T00:50:28;0.90;;;0.40;;
14984;SDS011;7588;62.368;25.902;2024-02-23T00:52:54;1.20;;;0.43;;
14984;SDS011;7588;62.368;25.902;2024-02-23T00:55:19;0.73;;;0.38;;
14984;SDS011;7588;62.368;25.902;2024-02-23T00:57:45;1.13;;;0.50;;
14984;SDS011;7588;62.368;25.902;2024-02-23T01:00:10;1.73;;;0.30;;
14984;SDS011;7588;62.368;25.902;2024-02-23T01:02:37;1.02;;;0.47;;
14984;SDS011;7588;62.368;25.902;2024-02-23T01:05:03;0.93;;;0.30;;
14984;SDS011;7588;62.368;25.902;2024-02-23T01:07:29;1.10;;;0.55;;
14984;SDS011;7588;62.368;25.902;2024-02-23T01:09:54;1.55;;;0.50;;
14984;SDS011;7588;62.368;25.902;2024-02-23T01:12:20;1.67;;;0.63;;
14984;SDS011;7588;62.368;25.902;2024-02-23T01:14:45;0.98;;;0.50;;
14984;SDS011;7588;62.368;25.902;2024-02-23T01:17:13;1.02;;;0.40;;
14984;SDS011;7588;62.368;25.902;2024-02-23T01:19:40;0.93;;;0.30;;
14984;SDS011;7588;62.368;25.902;2024-02-23T01:22:06;0.85;;;0.40;;
14984;SDS011;7588;62.368;25.902;2024-02-23T01:24:31;1.02;;;0.75;;
14984;SDS011;7588;62.368;25.902;2024-02-23T01:26:57;1.17;;;0.30;;
14984;SDS011;7588;62.368;25.902;2024-02-23T01:29:24;1.52;;;0.47;;
14984;SDS011;7588;62.368;25.902;2024-02-23T01:31:50;1.52;;;0.40;;
14984;SDS011;7588;62.368;25.902;2024-02-23T01:34:16;1.20;;;0.47;;
14984;SDS011;7588;62.368;25.902;2024-02-23T01:36:42;1.48;;;0.55;;
14984;SDS011;7588;62.368;25.902;2024-02-23T01:39:08;1.30;;;0.40;;
14984;SDS011;7588;62.368;25.902;2024-02-23T01:41:35;1.50;;;0.75;;
14984;SDS011;7588;62.368;25.902;2024-02-23T01:44:00;1.42;;;0.50;;
14984;SDS011;7588;62.368;25.902;2024-02-23T01:46:26;1.63;;;0.70;;
14984;SDS011;7588;62.368;25.902;2024-02-23T01:48:51;1.52;;;0.50;;
14984;SDS011;7588;62.368;25.902;2024-02-23T01:51:17;1.52;;;0.60;;
14984;SDS011;7588;62.368;25.902;2024-02-23T01:53:42;1.52;;;1.05;;
14984;SDS011;7588;62.368;25.902;2024-02-23T01:56:08;1.20;;;0.60;;
14984;SDS011;7588;62.368;25.902;2024-02-23T01:58:35;1.98;;;0.55;;
14984;SDS011;7588;62.368;25.902;2024-02-23T02:01:02;1.42;;;0.47;;
14984;SDS011;7588;62.368;25.902;2024-02-23T02:03:28;1.73;;;0.63;;
14984;SDS011;7588;62.368;25.902;2024-02-23T02:05:53;1.17;;;0.50;;
14984;SDS011;7588;62.368;25.902;2024-02-23T02:08:19;1.88;;;0.70;;
14984;SDS011;7588;62.368;25.902;2024-02-23T02:10:45;2.33;;;0.77;;
14984;SDS011;7588;62.368;25.902;2024-02-23T02:13:12;1.52;;;0.47;;
14984;SDS011;7588;62.368;25.902;2024-02-23T02:15:37;1.98;;;0.88;;
14984;SDS011;7588;62.368;25.902;2024-02-23T02:18:04;2.08;;;0.70;;
14984;SDS011;7588;62.368;25.902;2024-02-23T02:20:32;1.98;;;1.02;;
14984;SDS011;7588;62.368;25.902;2024-02-23T02:22:58;2.45;;;0.60;;
14984;SDS011;7588;62.368;25.902;2024-02-23T02:25:23;1.75;;;0.65;;
14984;SDS011;7588;62.368;25.902;2024-02-23T02:27:49;1.85;;;0.98;;
14984;SDS011;7588;62.368;25.902;2024-02-23T02:30:14;1.40;;;0.70;;
14984;SDS011;7588;62.368;25.902;2024-02-23T02:32:40;1.70;;;0.85;;
14984;SDS011;7588;62.368;25.902;2024-02-23T02:35:06;2.05;;;1.40;;
14984;SDS011;7588;62.368;25.902;2024-02-23T02:37:31;3.38;;;1.17;;
14984;SDS011;7588;62.368;25.902;2024-02-23T02:39:57;1.85;;;0.70;;
14984;SDS011;7588;62.368;25.902;2024-02-23T02:42:22;2.13;;;1.15;;
14984;SDS011;7588;62.368;25.902;2024-02-23T03:04:57;2.17;;;0.70;;
14984;SDS011;7588;62.368;25.902;2024-02-23T03:07:22;2.22;;;0.70;;
14984;SDS011;7588;62.368;25.902;2024-02-23T03:09:48;2.33;;;1.08;;
14984;SDS011;7588;62.368;25.902;2024-02-23T03:12:15;3.08;;;0.95;;
14984;SDS011;7588;62.368;25.902;2024-02-23T03:14:41;2.35;;;0.55;;
14984;SDS011;7588;62.368;25.902;2024-02-23T03:17:07;2.15;;;0.90;;
14984;SDS011;7588;62.368;25.902;2024-02-23T03:19:33;1.75;;;0.77;;
14984;SDS011;7588;62.368;25.902;2024-02-23T03:21:58;1.85;;;0.65;;
14984;SDS011;7588;62.368;25.902;2024-02-23T03:24:24;1.75;;;0.70;;
14984;SDS011;7588;62.368;25.902;2024-02-23T03:26:50;1.70;;;0.90;;
14984;SDS011;7588;62.368;25.902;2024-02-23T03:29:15;2.33;;;0.75;;
14984;SDS011;7588;62.368;25.902;2024-02-23T03:31:41;1.40;;;0.57;;
14984;SDS011;7588;62.368;25.902;2024-02-23T03:34:06;2.40;;;0.55;;
14984;SDS011;7588;62.368;25.902;2024-02-23T03:36:33;2.47;;;0.77;;
14984;SDS011;7588;62.368;25.902;2024-02-23T03:39:00;2.03;;;0.60;;
14984;SDS011;7588;62.368;25.902;2024-02-23T03:41:25;1.73;;;1.40;;
14984;SDS011;7588;62.368;25.902;2024-02-23T03:43:51;1.77;;;0.63;;
14984;SDS011;7588;62.368;25.902;2024-02-23T03:46:16;1.90;;;0.68;;
14984;SDS011;7588;62.368;25.902;2024-02-23T03:48:43;1.98;;;0.65;;
14984;SDS011;7588;62.368;25.902;2024-02-23T03:51:09;1.67;;;0.60;;
14984;SDS011;7588;62.368;25.902;2024-02-23T03:53:35;2.10;;;0.90;;
14984;SDS011;7588;62.368;25.902;2024-02-23T03:56:00;1.92;;;0.90;;
14984;SDS011;7588;62.368;25.902;2024-02-23T03:58:26;2.25;;;0.68;;
14984;SDS011;7588;62.368;25.902;2024-02-23T04:00:51;1.23;;;0.32;;
14984;SDS011;7588;62.368;25.902;2024-02-23T04:03:17;1.77;;;0.65;;
14984;SDS011;7588;62.368;25.902;2024-02-23T04:05:43;1.75;;;0.50;;
14984;SDS011;7588;62.368;25.902;2024-02-23T04:08:08;1.30;;;0.40;;
14984;SDS011;7588;62.368;25.902;2024-02-23T04:10:34;3.60;;;0.98;;
14984;SDS011;7588;62.368;25.902;2024-02-23T04:13:00;2.33;;;0.60;;
14984;SDS011;7588;62.368;25.902;2024-02-23T04:15:26;2.13;;;0.65;;
14984;SDS011;7588;62.368;25.902;2024-02-23T04:17:51;1.98;;;0.57;;
14984;SDS011;7588;62.368;25.902;2024-02-23T04:20:17;1.50;;;0.52;;
14984;SDS011;7588;62.368;25.902;2024-02-23T04:22:42;1.15;;;0.38;;
14984;SDS011;7588;62.368;25.902;2024-02-23T04:25:08;1.38;;;0.50;;
14984;SDS011;7588;62.368;25.902;2024-02-23T04:27:33;1.35;;;0.47;;
14984;SDS011;7588;62.368;25.902;2024-02-23T04:29:59;2.10;;;1.00;;
14984;SDS011;7588;62.368;25.902;2024-02-23T04:32:25;1.40;;;0.30;;
14984;SDS011;7588;62.368;25.902;2024-02-23T04:34:51;1.70;;;0.50;;
14984;SDS011;7588;62.368;25.902;2024-02-23T04:37:16;1.20;;;0.50;;
14984;SDS011;7588;62.368;25.902;2024-02-23T04:39:43;1.75;;;1.02;;
14984;SDS011;7588;62.368;25.902;2024-02-23T04:42:09;0.90;;;0.28;;
14984;SDS011;7588;62.368;25.902;2024-02-23T04:44:35;1.55;;;0.52;;
14984;SDS011;7588;62.368;25.902;2024-02-23T04:47:00;1.73;;;0.52;;
14984;SDS011;7588;62.368;25.902;2024-02-23T04:49:26;1.30;;;0.55;;
14984;SDS011;7588;62.368;25.902;2024-02-23T04:51:52;1.45;;;0.50;;
14984;SDS011;7588;62.368;25.902;2024-02-23T04:54:17;1.83;;;0.50;;
14984;SDS011;7588;62.368;25.902;2024-02-23T04:56:43;1.50;;;0.55;;
14984;SDS011;7588;62.368;25.902;2024-02-23T04:59:08;1.80;;;0.40;;
14984;SDS011;7588;62.368;25.902;2024-02-23T05:01:37;2.13;;;0.60;;
14984;SDS011;7588;62.368;25.902;2024-02-23T05:04:03;2.00;;;0.50;;
14984;SDS011;7588;62.368;25.902;2024-02-23T05:06:29;1.77;;;0.45;;
14984;SDS011;7588;62.368;25.902;2024-02-23T05:08:55;2.13;;;1.00;;
14984;SDS011;7588;62.368;25.902;2024-02-23T05:11:20;2.60;;;0.10;;
14984;SDS011;7588;62.368;25.902;2024-02-23T05:13:46;2.00;;;0.77;;
14984;SDS011;7588;62.368;25.902;2024-02-23T05:16:13;1.55;;;0.57;;
14984;SDS011;7588;62.368;25.902;2024-02-23T05:18:39;2.42;;;0.75;;
14984;SDS011;7588;62.368;25.902;2024-02-23T05:21:06;1.67;;;0.73;;
14984;SDS011;7588;62.368;25.902;2024-02-23T05:23:31;2.63;;;0.45;;
14984;SDS011;7588;62.368;25.902;2024-02-23T05:25:57;2.70;;;1.10;;
14984;SDS011;7588;62.368;25.902;2024-02-23T05:28:22;2.10;;;1.00;;
14984;SDS011;7588;62.368;25.902;2024-02-23T05:30:48;3.70;;;1.05;;
14984;SDS011;7588;62.368;25.902;2024-02-23T05:33:14;2.20;;;1.33;;
14984;SDS011;7588;62.368;25.902;2024-02-23T05:35:39;3.25;;;1.00;;
14984;SDS011;7588;62.368;25.902;2024-02-23T05:38:04;3.28;;;1.30;;
14984;SDS011;7588;62.368;25.902;2024-02-23T05:40:31;3.17;;;0.98;;
14984;SDS011;7588;62.368;25.902;2024-02-23T05:42:57;3.67;;;1.17;;
14984;SDS011;7588;62.368;25.902;2024-02-23T05:45:23;2.45;;;1.10;;
14984;SDS011;7588;62.368;25.902;2024-02-23T05:47:49;3.10;;;1.50;;
14984;SDS011;7588;62.368;25.902;2024-02-23T05:50:14;2.95;;;1.50;;
14984;SDS011;7588;62.368;25.902;2024-02-23T05:52:40;4.65;;;1.77;;
14984;SDS011;7588;62.368;25.902;2024-02-23T05:55:05;3.65;;;1.70;;
14984;SDS011;7588;62.368;25.902;2024-02-23T05:57:31;3.95;;;1.92;;
14984;SDS011;7588;62.368;25.902;2024-02-23T05:59:56;2.70;;;1.02;;
14984;SDS011;7588;62.368;25.902;2024-02-23T06:02:22;4.47;;;1.88;;
14984;SDS011;7588;62.368;25.902;2024-02-23T06:04:48;3.47;;;1.75;;
14984;SDS011;7588;62.368;25.902;2024-02-23T06:07:13;5.00;;;1.70;;
14984;SDS011;7588;62.368;25.902;2024-02-23T06:09:42;4.18;;;1.50;;
14984;SDS011;7588;62.368;25.902;2024-02-23T06:12:08;3.28;;;1.65;;
14984;SDS011;7588;62.368;25.902;2024-02-23T06:14:34;3.17;;;1.85;;
14984;SDS011;7588;62.368;25.902;2024-02-23T06:17:00;4.03;;;1.73;;
14984;SDS011;7588;62.368;25.902;2024-02-23T06:19:25;3.90;;;1.67;;
14984;SDS011;7588;62.368;25.902;2024-02-23T06:21:51;4.38;;;1.42;;
14984;SDS011;7588;62.368;25.902;2024-02-23T06:24:19;3.90;;;1.95;;
14984;SDS011;7588;62.368;25.902;2024-02-23T06:26:45;6.85;;;2.00;;
14984;SDS011;7588;62.368;25.902;2024-02-23T06:29:11;3.65;;;1.92;;
14984;SDS011;7588;62.368;25.902;2024-02-23T06:31:38;5.13;;;1.70;;
14984;SDS011;7588;62.368;25.902;2024-02-23T06:34:04;3.65;;;1.92;;
14984;SDS011;7588;62.368;25.902;2024-02-23T06:36:30;3.88;;;1.77;;
14984;SDS011;7588;62.368;25.902;2024-02-23T06:38:55;3.38;;;1.58;;
14984;SDS011;7588;62.368;25.902;2024-02-23T06:41:21;3.35;;;1.60;;
14984;SDS011;7588;62.368;25.902;2024-02-23T06:43:47;3.45;;;1.80;;
14984;SDS011;7588;62.368;25.902;2024-02-23T06:46:12;4.00;;;2.00;;
14984;SDS011;7588;62.368;25.902;2024-02-23T06:48:38;4.78;;;1.40;;
14984;SDS011;7588;62.368;25.902;2024-02-23T06:51:06;4.70;;;2.17;;
14984;SDS011;7588;62.368;25.902;2024-02-23T06:53:35;5.38;;;1.90;;
14984;SDS011;7588;62.368;25.902;2024-02-23T06:56:00;4.80;;;2.20;;
14984;SDS011;7588;62.368;25.902;2024-02-23T06:58:27;3.92;;;1.95;;
14984;SDS011;7588;62.368;25.902;2024-02-23T07:00:52;3.95;;;1.60;;
14984;SDS011;7588;62.368;25.902;2024-02-23T07:03:18;5.38;;;2.85;;
14984;SDS011;7588;62.368;25.902;2024-02-23T07:05:43;3.30;;;1.40;;
14984;SDS011;7588;62.368;25.902;2024-02-23T07:08:10;3.90;;;1.70;;
14984;SDS011;7588;62.368;25.902;2024-02-23T07:10:36;4.65;;;2.33;;
14984;SDS011;7588;62.368;25.902;2024-02-23T07:13:01;3.65;;;1.75;;
14984;SDS011;7588;62.368;25.902;2024-02-23T07:15:27;4.45;;;2.03;;
14984;SDS011;7588;62.368;25.902;2024-02-23T07:17:53;4.70;;;2.03;;
14984;SDS011;7588;62.368;25.902;2024-02-23T07:20:18;5.65;;;2.45;;
14984;SDS011;7588;62.368;25.902;2024-02-23T07:22:47;3.35;;;1.67;;
14984;SDS011;7588;62.368;25.902;2024-02-23T07:25:16;5.40;;;2.10;;
14984;SDS011;7588;62.368;25.902;2024-02-23T07:27:42;3.53;;;1.70;;
14984;SDS011;7588;62.368;25.902;2024-02-23T07:30:07;3.97;;;1.83;;
14984;SDS011;7588;62.368;25.902;2024-02-23T07:32:34;4.53;;;2.05;;
14984;SDS011;7588;62.368;25.902;2024-02-23T07:35:00;5.28;;;1.90;;
14984;SDS011;7588;62.368;25.902;2024-02-23T07:37:28;2.90;;;1.10;;
14984;SDS011;7588;62.368;25.902;2024-02-23T07:39:54;4.38;;;1.80;;
14984;SDS011;7588;62.368;25.902;2024-02-23T07:42:19;1.85;;;0.82;;
14984;SDS011;7588;62.368;25.902;2024-02-23T07:44:45;4.07;;;1.63;;
14984;SDS011;7588;62.368;25.902;2024-02-23T07:47:13;3.28;;;1.38;;
14984;SDS011;7588;62.368;25.902;2024-02-23T07:49:39;4.43;;;1.88;;
14984;SDS011;7588;62.368;25.902;2024-02-23T07:52:06;2.97;;;1.55;;
14984;SDS011;7588;62.368;25.902;2024-02-23T07:54:32;4.25;;;1.77;;
14984;SDS011;7588;62.368;25.902;2024-02-23T07:56:58;4.70;;;2.65;;
14984;SDS011;7588;62.368;25.902;2024-02-23T07:59:24;3.53;;;1.50;;
14984;SDS011;7588;62.368;25.902;2024-02-23T08:01:49;3.17;;;1.60;;
14984;SDS011;7588;62.368;25.902;2024-02-23T08:04:15;3.85;;;1.63;;
14984;SDS011;7588;62.368;25.902;2024-02-23T08:06:41;3.45;;;1.15;;
14984;SDS011;7588;62.368;25.902;2024-02-23T08:09:07;2.72;;;1.20;;
14984;SDS011;7588;62.368;25.902;2024-02-23T08:11:33;3.15;;;1.23;;
14984;SDS011;7588;62.368;25.902;2024-02-23T08:13:59;3.28;;;0.90;;
14984;SDS011;7588;62.368;25.902;2024-02-23T08:16:25;3.58;;;1.25;;
14984;SDS011;7588;62.368;25.902;2024-02-23T08:18:51;3.40;;;1.70;;
14984;SDS011;7588;62.368;25.902;2024-02-23T08:21:16;3.72;;;1.48;;
14984;SDS011;7588;62.368;25.902;2024-02-23T08:23:42;2.83;;;1.10;;
14984;SDS011;7588;62.368;25.902;2024-02-23T08:26:07;3.83;;;1.27;;
14984;SDS011;7588;62.368;25.902;2024-02-23T08:28:35;4.05;;;1.58;;
14984;SDS011;7588;62.368;25.902;2024-02-23T08:31:00;3.35;;;1.42;;
14984;SDS011;7588;62.368;25.902;2024-02-23T08:33:26;5.47;;;1.30;;
14984;SDS011;7588;62.368;25.902;2024-02-23T08:35:51;2.20;;;0.93;;
14984;SDS011;7588;62.368;25.902;2024-02-23T08:38:17;2.75;;;1.30;;
14984;SDS011;7588;62.368;25.902;2024-02-23T08:40:43;3.70;;;1.83;;
14984;SDS011;7588;62.368;25.902;2024-02-23T08:43:10;4.55;;;1.95;;
14984;SDS011;7588;62.368;25.902;2024-02-23T08:45:36;4.32;;;1.73;;
14984;SDS011;7588;62.368;25.902;2024-02-23T08:48:01;3.70;;;1.50;;
14984;SDS011;7588;62.368;25.902;2024-02-23T08:50:28;3.40;;;1.88;;
14984;SDS011;7588;62.368;25.902;2024-02-23T08:52:54;3.92;;;1.60;;
14984;SDS011;7588;62.368;25.902;2024-02-23T08:55:20;2.90;;;1.30;;
14984;SDS011;7588;62.368;25.902;2024-02-23T08:57:46;3.28;;;1.42;;
14984;SDS011;7588;62.368;25.902;2024-02-23T09:00:12;4.03;;;2.85;;
14984;SDS011;7588;62.368;25.902;2024-02-23T09:02:39;3.33;;;1.67;;
14984;SDS011;7588;62.368;25.902;2024-02-23T09:05:07;3.70;;;1.85;;
14984;SDS011;7588;62.368;25.902;2024-02-23T09:07:33;4.10;;;1.85;;
14984;SDS011;7588;62.368;25.902;2024-02-23T09:09:59;5.00;;;1.67;;
14984;SDS011;7588;62.368;25.902;2024-02-23T09:12:24;3.47;;;1.25;;
14984;SDS011;7588;62.368;25.902;2024-02-23T09:14:51;5.05;;;2.10;;
14984;SDS011;7588;62.368;25.902;2024-02-23T09:17:16;3.67;;;1.80;;
14984;SDS011;7588;62.368;25.902;2024-02-23T09:19:43;4.32;;;1.75;;
14984;SDS011;7588;62.368;25.902;2024-02-23T09:22:09;2.90;;;1.70;;
14984;SDS011;7588;62.368;25.902;2024-02-23T09:24:34;3.97;;;2.20;;
14984;SDS011;7588;62.368;25.902;2024-02-23T09:27:00;4.00;;;1.67;;
14984;SDS011;7588;62.368;25.902;2024-02-23T09:29:27;4.32;;;1.85;;
14984;SDS011;7588;62.368;25.902;2024-02-23T09:31:52;5.30;;;2.40;;
14984;SDS011;7588;62.368;25.902;2024-02-23T09:34:18;4.72;;;1.88;;
14984;SDS011;7588;62.368;25.902;2024-02-23T09:36:43;4.03;;;1.85;;
14984;SDS011;7588;62.368;25.902;2024-02-23T09:39:09;4.43;;;1.90;;
14984;SDS011;7588;62.368;25.902;2024-02-23T09:41:34;4.13;;;2.10;;
14984;SDS011;7588;62.368;25.902;2024-02-23T09:44:01;3.95;;;1.95;;
14984;SDS011;7588;62.368;25.902;2024-02-23T09:46:27;4.55;;;1.73;;
14984;SDS011;7588;62.368;25.902;2024-02-23T09:48:52;3.20;;;2.00;;
14984;SDS011;7588;62.368;25.902;2024-02-23T09:51:18;3.80;;;1.83;;
14984;SDS011;7588;62.368;25.902;2024-02-23T09:53:45;4.45;;;2.13;;
14984;SDS011;7588;62.368;25.902;2024-02-23T09:56:13;5.88;;;1.98;;
14984;SDS011;7588;62.368;25.902;2024-02-23T09:58:42;4.97;;;2.13;;
14984;SDS011;7588;62.368;25.902;2024-02-23T10:01:09;3.63;;;1.50;;
14984;SDS011;7588;62.368;25.902;2024-02-23T10:03:36;2.97;;;1.48;;
14984;SDS011;7588;62.368;25.902;2024-02-23T10:06:03;5.10;;;2.00;;
14984;SDS011;7588;62.368;25.902;2024-02-23T10:08:30;3.45;;;1.27;;
14984;SDS011;7588;62.368;25.902;2024-02-23T10:10:55;4.85;;;1.83;;
14984;SDS011;7588;62.368;25.902;2024-02-23T10:13:24;3.20;;;1.42;;
14984;SDS011;7588;62.368;25.902;2024-02-23T10:15:53;3.40;;;1.73;;
14984;SDS011;7588;62.368;25.902;2024-02-23T10:18:19;2.58;;;1.27;;
14984;SDS011;7588;62.368;25.902;2024-02-23T10:20:45;2.15;;;0.80;;
14984;SDS011;7588;62.368;25.902;2024-02-23T10:23:11;2.35;;;1.45;;
14984;SDS011;7588;62.368;25.902;2024-02-23T10:25:36;2.90;;;1.45;;
14984;SDS011;7588;62.368;25.902;2024-02-23T10:28:03;3.67;;;1.15;;
14984;SDS011;7588;62.368;25.902;2024-02-23T10:30:29;2.90;;;1.42;;
14984;SDS011;7588;62.368;25.902;2024-02-23T10:32:56;2.15;;;0.70;;
14984;SDS011;7588;62.368;25.902;2024-02-23T10:35:24;2.03;;;0.73;;
14984;SDS011;7588;62.368;25.902;2024-02-23T10:37:50;1.85;;;0.75;;
14984;SDS011;7588;62.368;25.902;2024-02-23T10:40:18;2.00;;;0.85;;
14984;SDS011;7588;62.368;25.902;2024-02-23T10:42:49;2.70;;;1.13;;
14984;SDS011;7588;62.368;25.902;2024-02-23T10:45:19;1.48;;;0.50;;
14984;SDS011;7588;62.368;25.902;2024-02-23T10:47:46;3.88;;;0.98;;
14984;SDS011;7588;62.368;25.902;2024-02-23T10:50:12;1.52;;;0.88;;
14984;SDS011;7588;62.368;25.902;2024-02-23T10:52:42;2.05;;;0.60;;
14984;SDS011;7588;62.368;25.902;2024-02-23T10:55:10;1.58;;;0.70;;
14984;SDS011;7588;62.368;25.902;2024-02-23T10:57:38;1.63;;;0.88;;
14984;SDS011;7588;62.368;25.902;2024-02-23T11:00:07;1.98;;;0.77;;
14984;SDS011;7588;62.368;25.902;2024-02-23T11:02:41;2.17;;;0.85;;
14984;SDS011;7588;62.368;25.902;2024-02-23T11:05:12;1.80;;;0.77;;
14984;SDS011;7588;62.368;25.902;2024-02-23T11:07:39;1.38;;;0.63;;
14984;SDS011;7588;62.368;25.902;2024-02-23T11:10:05;1.92;;;1.00;;
14984;SDS011;7588;62.368;25.902;2024-02-23T11:12:31;3.15;;;0.88;;
14984;SDS011;7588;62.368;25.902;2024-02-23T11:14:57;3.05;;;1.25;;
14984;SDS011;7588;62.368;25.902;2024-02-23T11:17:26;2.33;;;1.15;;
14984;SDS011;7588;62.368;25.902;2024-02-23T11:19:53;2.55;;;0.80;;
14984;SDS011;7588;62.368;25.902;2024-02-23T11:22:35;1.88;;;0.68;;
14984;SDS011;7588;62.368;25.902;2024-02-23T11:25:04;2.30;;;0.85;;
14984;SDS011;7588;62.368;25.902;2024-02-23T11:27:33;2.28;;;0.98;;
14984;SDS011;7588;62.368;25.902;2024-02-23T11:32:49;2.08;;;1.00;;
14984;SDS011;7588;62.368;25.902;2024-02-23T11:35:14;2.55;;;0.88;;
14984;SDS011;7588;62.368;25.902;2024-02-23T11:37:58;3.15;;;0.93;;
14984;SDS011;7588;62.368;25.902;2024-02-23T11:40:25;2.70;;;1.05;;
14984;SDS011;7588;62.368;25.902;2024-02-23T11:42:51;2.75;;;1.30;;
14984;SDS011;7588;62.368;25.902;2024-02-23T11:45:17;2.35;;;1.08;;
14984;SDS011;7588;62.368;25.902;2024-02-23T11:47:43;2.15;;;1.13;;
14984;SDS011;7588;62.368;25.902;2024-02-23T11:50:09;4.50;;;1.63;;
14984;SDS011;7588;62.368;25.902;2024-02-23T11:52:36;2.42;;;1.10;;
14984;SDS011;7588;62.368;25.902;2024-02-23T11:55:03;3.83;;;2.85;;
14984;SDS011;7588;62.368;25.902;2024-02-23T11:57:30;3.13;;;1.42;;
14984;SDS011;7588;62.368;25.902;2024-02-23T12:00:00;2.88;;;1.48;;
14984;SDS011;7588;62.368;25.902;2024-02-23T12:02:31;2.83;;;1.40;;
14984;SDS011;7588;62.368;25.902;2024-02-23T12:04:57;5.05;;;1.75;;
14984;SDS011;7588;62.368;25.902;2024-02-23T12:07:23;2.28;;;1.33;;
14984;SDS011;7588;62.368;25.902;2024-02-23T12:09:49;4.43;;;2.05;;
14984;SDS011;7588;62.368;25.902;2024-02-23T12:12:15;3.30;;;1.48;;
14984;SDS011;7588;62.368;25.902;2024-02-23T12:14:40;3.60;;;1.77;;
14984;SDS011;7588;62.368;25.902;2024-02-23T12:17:07;3.58;;;1.88;;
14984;SDS011;7588;62.368;25.902;2024-02-23T12:19:37;3.05;;;1.20;;
14984;SDS011;7588;62.368;25.902;2024-02-23T12:22:04;3.08;;;1.27;;
14984;SDS011;7588;62.368;25.902;2024-02-23T12:24:30;10.63;;;1.95;;
14984;SDS011;7588;62.368;25.902;2024-02-23T12:26:56;4.72;;;1.77;;
14984;SDS011;7588;62.368;25.902;2024-02-23T12:29:21;3.85;;;1.33;;
14984;SDS011;7588;62.368;25.902;2024-02-23T12:31:47;4.43;;;1.90;;
14984;SDS011;7588;62.368;25.902;2024-02-23T12:34:13;3.28;;;1.60;;
14984;SDS011;7588;62.368;25.902;2024-02-23T12:36:38;4.13;;;1.77;;
14984;SDS011;7588;62.368;25.902;2024-02-23T12:39:04;4.18;;;1.95;;
14984;SDS011;7588;62.368;25.902;2024-02-23T12:41:30;3.85;;;1.30;;
14984;SDS011;7588;62.368;25.902;2024-02-23T12:43:56;3.30;;;1.38;;
14984;SDS011;7588;62.368;25.902;2024-02-23T12:46:21;6.43;;;1.48;;
14984;SDS011;7588;62.368;25.902;2024-02-23T12:48:48;4.63;;;1.70;;
14984;SDS011;7588;62.368;25.902;2024-02-23T12:51:14;3.83;;;1.83;;
14984;SDS011;7588;62.368;25.902;2024-02-23T12:53:40;3.50;;;1.70;;
14984;SDS011;7588;62.368;25.902;2024-02-23T12:56:10;4.45;;;1.92;;
14984;SDS011;7588;62.368;25.902;2024-02-23T12:58:43;2.67;;;1.10;;
14984;SDS011;7588;62.368;25.902;2024-02-23T13:01:09;4.88;;;2.17;;
14984;SDS011;7588;62.368;25.902;2024-02-23T13:03:36;4.82;;;1.98;;
14984;SDS011;7588;62.368;25.902;2024-02-23T13:06:03;5.53;;;1.85;;
14984;SDS011;7588;62.368;25.902;2024-02-23T13:08:29;4.18;;;2.28;;
14984;SDS011;7588;62.368;25.902;2024-02-23T13:10:56;4.88;;;2.22;;
14984;SDS011;7588;62.368;25.902;2024-02-23T13:13:21;4.70;;;2.30;;
14984;SDS011;7588;62.368;25.902;2024-02-23T13:15:47;4.88;;;1.98;;
14984;SDS011;7588;62.368;25.902;2024-02-23T13:18:14;3.58;;;1.70;;
14984;SDS011;7588;62.368;25.902;2024-02-23T13:20:40;4.72;;;2.20;;
14984;SDS011;7588;62.368;25.902;2024-02-23T13:23:09;4.85;;;1.40;;
14984;SDS011;7588;62.368;25.902;2024-02-23T13:25:35;5.25;;;2.33;;
14984;SDS011;7588;62.368;25.902;2024-02-23T13:28:01;4.53;;;2.00;;
14984;SDS011;7588;62.368;25.902;2024-02-23T13:30:27;3.53;;;1.83;;
14984;SDS011;7588;62.368;25.902;2024-02-23T13:32:53;4.63;;;2.17;;
14984;SDS011;7588;62.368;25.902;2024-02-23T13:35:18;4.28;;;1.90;;
14984;SDS011;7588;62.368;25.902;2024-02-23T13:37:44;3.33;;;1.80;;
14984;SDS011;7588;62.368;25.902;2024-02-23T13:40:09;4.88;;;2.25;;
14984;SDS011;7588;62.368;25.902;2024-02-23T13:42:36;4.20;;;2.20;;
14984;SDS011;7588;62.368;25.902;2024-02-23T13:45:04;4.43;;;1.90;;
14984;SDS011;7588;62.368;25.902;2024-02-23T13:47:30;4.22;;;1.75;;
14984;SDS011;7588;62.368;25.902;2024-02-23T13:49:56;3.30;;;1.67;;
14984;SDS011;7588;62.368;25.902;2024-02-23T13:52:21;4.22;;;1.75;;
14984;SDS011;7588;62.368;25.902;2024-02-23T13:54:47;4.60;;;2.17;;
14984;SDS011;7588;62.368;25.902;2024-02-23T13:57:12;3.28;;;1.10;;
14984;SDS011;7588;62.368;25.902;2024-02-23T13:59:38;3.53;;;1.48;;
14984;SDS011;7588;62.368;25.902;2024-02-23T14:02:03;4.35;;;1.73;;
14984;SDS011;7588;62.368;25.902;2024-02-23T14:04:29;3.97;;;1.55;;
14984;SDS011;7588;62.368;25.902;2024-02-23T14:06:54;3.00;;;1.90;;
14984;SDS011;7588;62.368;25.902;2024-02-23T14:09:20;4.70;;;1.90;;
14984;SDS011;7588;62.368;25.902;2024-02-23T14:11:45;5.60;;;2.65;;
14984;SDS011;7588;62.368;25.902;2024-02-23T14:14:10;3.17;;;2.13;;
14984;SDS011;7588;62.368;25.902;2024-02-23T14:16:36;3.85;;;1.40;;
14984;SDS011;7588;62.368;25.902;2024-02-23T14:19:02;4.10;;;2.20;;
14984;SDS011;7588;62.368;25.902;2024-02-23T14:21:27;3.28;;;1.70;;
14984;SDS011;7588;62.368;25.902;2024-02-23T14:23:53;4.82;;;1.88;;
14984;SDS011;7588;62.368;25.902;2024-02-23T14:26:18;4.78;;;1.80;;
14984;SDS011;7588;62.368;25.902;2024-02-23T14:28:43;5.15;;;1.90;;
14984;SDS011;7588;62.368;25.902;2024-02-23T14:31:09;4.97;;;2.10;;
14984;SDS011;7588;62.368;25.902;2024-02-23T14:33:35;2.65;;;1.05;;
14984;SDS011;7588;62.368;25.902;2024-02-23T14:36:00;4.18;;;2.08;;
14984;SDS011;7588;62.368;25.902;2024-02-23T14:38:26;4.25;;;1.88;;
14984;SDS011;7588;62.368;25.902;2024-02-23T14:40:51;2.83;;;1.80;;
14984;SDS011;7588;62.368;25.902;2024-02-23T14:43:18;2.85;;;1.40;;
14984;SDS011;7588;62.368;25.902;2024-02-23T14:45:43;3.97;;;1.73;;
14984;SDS011;7588;62.368;25.902;2024-02-23T14:48:09;4.10;;;1.88;;
14984;SDS011;7588;62.368;25.902;2024-02-23T14:50:34;5.03;;;1.67;;
14984;SDS011;7588;62.368;25.902;2024-02-23T14:53:00;3.85;;;1.40;;
14984;SDS011;7588;62.368;25.902;2024-02-23T14:55:25;4.47;;;1.70;;
14984;SDS011;7588;62.368;25.902;2024-02-23T14:57:51;5.15;;;1.80;;
14984;SDS011;7588;62.368;25.902;2024-02-23T15:00:19;3.80;;;2.22;;
14984;SDS011;7588;62.368;25.902;2024-02-23T15:02:45;4.40;;;2.10;;
14984;SDS011;7588;62.368;25.902;2024-02-23T15:05:11;3.45;;;1.60;;